sensor_id;sensor_type;location;lat;lon;timestamp;pressure;altitude;pressure_sealevel;temperature;humidity
29839;BME280;18669;53.356;-1.464;2023-02-04T00:02:25;102409.66;;;11.06;100.00
29839;BME280;18669;53.356;-1.464;2023-02-04T00:04:51;102411.56;;;11.26;100.00
29839;BME280;18669;53.356;-1.464;2023-02-04T00:07:17;102402.63;;;11.03;100.00
29839;BME280;18669;53.356;-1.464;2023-02-04T00:09:43;102414.16;;;11.23;100.00
29839;BME280;18669;53.356;-1.464;2023-02-04T00:12:13;102416.72;;;11.10;100.00
29839;BME280;18669;53.356;-1.464;2023-02-04T00:14:39;102408.78;;;11.02;100.00
29839;BME280;18669;53.356;-1.464;2023-02-04T00:17:05;102411.44;;;11.07;100.00
29839;BME280;18669;53.356;-1.464;2023-02-04T00:19:33;102409.69;;;11.08;100.00
29839;BME280;18669;53.356;-1.464;2023-02-04T00:21:58;102399.97;;;11.02;100.00
29839;BME280;18669;53.356;-1.464;2023-02-04T00:24:25;102409.66;;;11.03;100.00
29839;BME280;18669;53.356;-1.464;2023-02-04T00:26:51;102404.34;;;11.00;100.00
29839;BME280;18669;53.356;-1.464;2023-02-04T00:29:16;102410.63;;;11.17;100.00
29839;BME280;18669;53.356;-1.464;2023-02-04T00:31:42;102402.63;;;11.00;100.00
29839;BME280;18669;53.356;-1.464;2023-02-04T00:34:08;102407.94;;;11.13;100.00
29839;BME280;18669;53.356;-1.464;2023-02-04T00:36:34;102402.59;;;10.99;100.00
29839;BME280;18669;53.356;-1.464;2023-02-04T00:39:00;102411.47;;;11.15;100.00
29839;BME280;18669;53.356;-1.464;2023-02-04T00:41:26;102405.22;;;10.93;100.00
29839;BME280;18669;53.356;-1.464;2023-02-04T00:43:52;102399.16;;;11.09;100.00
29839;BME280;18669;53.356;-1.464;2023-02-04T00:46:17;102401.63;;;10.86;100.00
29839;BME280;18669;53.356;-1.464;2023-02-04T00:48:43;102392.00;;;10.88;100.00
29839;BME280;18669;53.356;-1.464;2023-02-04T00:51:09;102403.53;;;11.06;100.00
29839;BME280;18669;53.356;-1.464;2023-02-04T00:53:35;102405.16;;;10.83;100.00
29839;BME280;18669;53.356;-1.464;2023-02-04T00:56:01;102409.66;;;11.06;100.00
29839;BME280;18669;53.356;-1.464;2023-02-04T00:58:27;102403.41;;;10.85;100.00
29839;BME280;18669;53.356;-1.464;2023-02-04T01:00:53;102397.34;;;11.00;100.00
29839;BME280;18669;53.356;-1.464;2023-02-04T01:03:18;102405.97;;;10.81;100.00
29839;BME280;18669;53.356;-1.464;2023-02-04T01:05:44;102404.38;;;11.01;100.00
29839;BME280;18669;53.356;-1.464;2023-02-04T01:08:10;102409.53;;;10.84;100.00
29839;BME280;18669;53.356;-1.464;2023-02-04T01:10:36;102411.41;;;11.04;100.00
29839;BME280;18669;53.356;-1.464;2023-02-04T01:13:02;102412.16;;;10.83;100.00
29839;BME280;18669;53.356;-1.464;2023-02-04T01:15:28;102419.31;;;11.02;100.00
29839;BME280;18669;53.356;-1.464;2023-02-04T01:17:54;102417.47;;;10.87;100.00
29839;BME280;18669;53.356;-1.464;2023-02-04T01:20:19;102425.47;;;11.04;100.00
29839;BME280;18669;53.356;-1.464;2023-02-04T01:22:45;102422.75;;;10.91;100.00
29839;BME280;18669;53.356;-1.464;2023-02-04T01:25:11;102423.63;;;10.89;100.00
29839;BME280;18669;53.356;-1.464;2023-02-04T01:27:37;102427.22;;;11.02;100.00
29839;BME280;18669;53.356;-1.464;2023-02-04T01:30:04;102430.66;;;10.97;100.00
29839;BME280;18669;53.356;-1.464;2023-02-04T01:32:30;102430.59;;;10.86;100.00
29839;BME280;18669;53.356;-1.464;2023-02-04T01:34:56;102428.81;;;10.82;100.00
29839;BME280;18669;53.356;-1.464;2023-02-04T01:37:22;102426.34;;;11.03;100.00
29839;BME280;18669;53.356;-1.464;2023-02-04T01:39:48;102431.47;;;10.83;100.00
29839;BME280;18669;53.356;-1.464;2023-02-04T01:42:14;102433.34;;;11.03;100.00
29839;BME280;18669;53.356;-1.464;2023-02-04T01:44:40;102418.34;;;10.86;100.00
29839;BME280;18669;53.356;-1.464;2023-02-04T01:47:06;102425.34;;;10.84;100.00
29839;BME280;18669;53.356;-1.464;2023-02-04T01:49:32;102420.19;;;11.06;100.00
29839;BME280;18669;53.356;-1.464;2023-02-04T01:51:58;102435.00;;;10.87;100.00
29839;BME280;18669;53.356;-1.464;2023-02-04T01:54:24;102433.41;;;11.08;100.00
29839;BME280;18669;53.356;-1.464;2023-02-04T01:56:50;102432.41;;;10.93;100.00
29839;BME280;18669;53.356;-1.464;2023-02-04T01:59:17;102429.78;;;10.93;100.00
29839;BME280;18669;53.356;-1.464;2023-02-04T02:01:49;102430.72;;;11.01;100.00
29839;BME280;18669;53.356;-1.464;2023-02-04T02:04:39;102436.84;;;11.02;100.00
29839;BME280;18669;53.356;-1.464;2023-02-04T02:07:05;102433.31;;;10.97;100.00
29839;BME280;18669;53.356;-1.464;2023-02-04T02:09:32;102438.56;;;10.97;100.00
29839;BME280;18669;53.356;-1.464;2023-02-04T02:12:00;102430.66;;;10.97;100.00
29839;BME280;18669;53.356;-1.464;2023-02-04T02:14:27;102416.53;;;10.84;100.00
29839;BME280;18669;53.356;-1.464;2023-02-04T02:16:53;102414.78;;;10.83;100.00
29839;BME280;18669;53.356;-1.464;2023-02-04T02:19:26;102420.13;;;10.95;100.00
29839;BME280;18669;53.356;-1.464;2023-02-04T02:22:02;102420.13;;;10.95;100.00
29839;BME280;18669;53.356;-1.464;2023-02-04T02:24:32;102416.56;;;10.87;100.00
29839;BME280;18669;53.356;-1.464;2023-02-04T02:27:04;102421.00;;;10.94;100.00
29839;BME280;18669;53.356;-1.464;2023-02-04T02:29:32;102421.81;;;10.82;100.00
29839;BME280;18669;53.356;-1.464;2023-02-04T02:31:58;102413.91;;;10.84;100.00
29839;BME280;18669;53.356;-1.464;2023-02-04T02:34:28;102416.50;;;10.79;100.00
29839;BME280;18669;53.356;-1.464;2023-02-04T02:36:56;102420.91;;;10.76;100.00
29839;BME280;18669;53.356;-1.464;2023-02-04T02:39:23;102413.00;;;10.77;100.00
29839;BME280;18669;53.356;-1.464;2023-02-04T02:41:49;102420.00;;;10.73;100.00
29839;BME280;18669;53.356;-1.464;2023-02-04T02:44:15;102410.44;;;10.91;100.00
29839;BME280;18669;53.356;-1.464;2023-02-04T02:46:43;102413.88;;;10.81;100.00
29839;BME280;18669;53.356;-1.464;2023-02-04T02:49:14;102413.06;;;10.86;100.00
29839;BME280;18669;53.356;-1.464;2023-02-04T02:51:41;102415.63;;;10.77;100.00
29839;BME280;18669;53.356;-1.464;2023-02-04T02:54:23;102409.50;;;10.80;100.00
29839;BME280;18669;53.356;-1.464;2023-02-04T02:56:49;102412.88;;;10.65;100.00
29839;BME280;18669;53.356;-1.464;2023-02-04T02:59:16;102406.78;;;10.69;100.00
29839;BME280;18669;53.356;-1.464;2023-02-04T03:01:45;102410.38;;;10.76;100.00
29839;BME280;18669;53.356;-1.464;2023-02-04T03:04:13;102410.34;;;10.74;100.00
29839;BME280;18669;53.356;-1.464;2023-02-04T03:06:40;102413.81;;;10.68;100.00
29839;BME280;18669;53.356;-1.464;2023-02-04T03:09:06;102418.34;;;10.86;100.00
29839;BME280;18669;53.356;-1.464;2023-02-04T03:11:32;102419.06;;;10.70;100.00
29839;BME280;18669;53.356;-1.464;2023-02-04T03:13:59;102424.38;;;10.73;100.00
29839;BME280;18669;53.356;-1.464;2023-02-04T03:16:29;102418.25;;;10.77;100.00
29839;BME280;18669;53.356;-1.464;2023-02-04T03:19:00;102413.03;;;10.83;100.00
29839;BME280;18669;53.356;-1.464;2023-02-04T03:21:27;102416.50;;;10.78;100.00
29839;BME280;18669;53.356;-1.464;2023-02-04T03:23:53;102421.72;;;10.70;100.00
29839;BME280;18669;53.356;-1.464;2023-02-04T03:26:22;102428.72;;;10.71;100.00
29839;BME280;18669;53.356;-1.464;2023-02-04T03:28:48;102419.91;;;10.66;100.00
29839;BME280;18669;53.356;-1.464;2023-02-04T03:31:14;102421.84;;;10.87;100.00
29839;BME280;18669;53.356;-1.464;2023-02-04T03:33:40;102424.34;;;10.70;100.00
29839;BME280;18669;53.356;-1.464;2023-02-04T03:36:07;102421.72;;;10.73;100.00
29839;BME280;18669;53.356;-1.464;2023-02-04T03:38:33;102420.84;;;10.71;100.00
29839;BME280;18669;53.356;-1.464;2023-02-04T03:40:59;102414.84;;;10.91;100.00
29839;BME280;18669;53.356;-1.464;2023-02-04T03:43:25;102413.81;;;10.68;100.00
29839;BME280;18669;53.356;-1.464;2023-02-04T03:45:51;102417.47;;;10.91;100.00
29839;BME280;18669;53.356;-1.464;2023-02-04T03:48:17;102414.72;;;10.73;100.00
29839;BME280;18669;53.356;-1.464;2023-02-04T03:50:43;102416.44;;;10.68;100.00
29839;BME280;18669;53.356;-1.464;2023-02-04T03:53:09;102415.56;;;10.69;100.00
29839;BME280;18669;53.356;-1.464;2023-02-04T03:55:35;102412.03;;;10.69;100.00
29839;BME280;18669;53.356;-1.464;2023-02-04T03:58:02;102412.97;;;10.72;100.00
29839;BME280;18669;53.356;-1.464;2023-02-04T04:00:29;102423.44;;;10.66;100.00
29839;BME280;18669;53.356;-1.464;2023-02-04T04:02:57;102423.47;;;10.71;100.00
29839;BME280;18669;53.356;-1.464;2023-02-04T04:05:24;102430.47;;;10.69;100.00
29839;BME280;18669;53.356;-1.464;2023-02-04T04:07:50;102431.34;;;10.68;100.00
29839;BME280;18669;53.356;-1.464;2023-02-04T04:10:16;102431.28;;;10.58;100.00
29839;BME280;18669;53.356;-1.464;2023-02-04T04:12:42;102424.28;;;10.62;100.00
29839;BME280;18669;53.356;-1.464;2023-02-04T04:15:08;102418.28;;;10.80;100.00
29839;BME280;18669;53.356;-1.464;2023-02-04T04:17:33;102429.53;;;10.64;100.00
29839;BME280;18669;53.356;-1.464;2023-02-04T04:19:59;102431.50;;;10.88;100.00
29839;BME280;18669;53.356;-1.464;2023-02-04T04:22:25;102423.47;;;10.71;100.00
29839;BME280;18669;53.356;-1.464;2023-02-04T04:24:51;102427.03;;;10.74;100.00
29839;BME280;18669;53.356;-1.464;2023-02-04T04:27:17;102423.44;;;10.68;100.00
29839;BME280;18669;53.356;-1.464;2023-02-04T04:29:43;102433.06;;;10.66;100.00
29839;BME280;18669;53.356;-1.464;2023-02-04T04:32:09;102433.06;;;10.66;100.00
29839;BME280;18669;53.356;-1.464;2023-02-04T04:34:35;102424.31;;;10.65;100.00
29839;BME280;18669;53.356;-1.464;2023-02-04T04:37:01;102438.50;;;10.84;100.00
29839;BME280;18669;53.356;-1.464;2023-02-04T04:39:27;102441.88;;;10.68;100.00
29839;BME280;18669;53.356;-1.464;2023-02-04T04:41:53;102439.25;;;10.69;100.00
29839;BME280;18669;53.356;-1.464;2023-02-04T04:44:19;102431.34;;;10.68;100.00
29839;BME280;18669;53.356;-1.464;2023-02-04T04:46:45;102431.38;;;10.71;100.00
29839;BME280;18669;53.356;-1.464;2023-02-04T04:49:11;102428.72;;;10.71;100.00
29839;BME280;18669;53.356;-1.464;2023-02-04T04:51:37;102434.84;;;10.67;100.00
29839;BME280;18669;53.356;-1.464;2023-02-04T04:54:03;102430.47;;;10.67;100.00
29839;BME280;18669;53.356;-1.464;2023-02-04T04:56:29;102434.81;;;10.64;100.00
29839;BME280;18669;53.356;-1.464;2023-02-04T04:58:55;102438.38;;;10.67;100.00
29839;BME280;18669;53.356;-1.464;2023-02-04T05:01:21;102445.50;;;10.82;100.00
29839;BME280;18669;53.356;-1.464;2023-02-04T05:03:47;102446.25;;;10.69;100.00
29839;BME280;18669;53.356;-1.464;2023-02-04T05:06:13;102442.75;;;10.68;100.00
29839;BME280;18669;53.356;-1.464;2023-02-04T05:08:39;102442.69;;;10.60;100.00
29839;BME280;18669;53.356;-1.464;2023-02-04T05:11:05;102448.84;;;10.63;100.00
29839;BME280;18669;53.356;-1.464;2023-02-04T05:13:31;102447.25;;;10.82;100.00
29839;BME280;18669;53.356;-1.464;2023-02-04T05:15:57;102452.38;;;10.63;100.00
29839;BME280;18669;53.356;-1.464;2023-02-04T05:18:23;102459.38;;;10.63;100.00
29839;BME280;18669;53.356;-1.464;2023-02-04T05:20:49;102466.53;;;10.79;100.00
29839;BME280;18669;53.356;-1.464;2023-02-04T05:23:15;102469.00;;;10.57;100.00
29839;BME280;18669;53.356;-1.464;2023-02-04T05:25:41;102466.38;;;10.60;100.00
29839;BME280;18669;53.356;-1.464;2023-02-04T05:28:07;102474.47;;;10.82;100.00
29839;BME280;18669;53.356;-1.464;2023-02-04T05:30:33;102462.88;;;10.60;100.00
29839;BME280;18669;53.356;-1.464;2023-02-04T05:32:59;102469.84;;;10.55;100.00
29839;BME280;18669;53.356;-1.464;2023-02-04T05:35:25;102470.75;;;10.60;100.00
29839;BME280;18669;53.356;-1.464;2023-02-04T05:37:51;102475.16;;;10.59;100.00
29839;BME280;18669;53.356;-1.464;2023-02-04T05:40:17;102471.78;;;10.78;100.00
29839;BME280;18669;53.356;-1.464;2023-02-04T05:42:43;102463.75;;;10.62;100.00
29839;BME280;18669;53.356;-1.464;2023-02-04T05:45:13;102470.00;;;10.72;100.00
29839;BME280;18669;53.356;-1.464;2023-02-04T05:47:40;102471.63;;;10.60;100.00
29839;BME280;18669;53.356;-1.464;2023-02-04T05:50:06;102467.41;;;10.77;100.00
29839;BME280;18669;53.356;-1.464;2023-02-04T05:52:32;102479.53;;;10.60;100.00
29839;BME280;18669;53.356;-1.464;2023-02-04T05:54:58;102486.59;;;10.63;100.00
29839;BME280;18669;53.356;-1.464;2023-02-04T05:57:24;102479.59;;;10.65;100.00
29839;BME280;18669;53.356;-1.464;2023-02-04T05:59:49;102478.69;;;10.63;100.00
29839;BME280;18669;53.356;-1.464;2023-02-04T06:02:15;102484.88;;;10.70;100.00
29839;BME280;18669;53.356;-1.464;2023-02-04T06:04:41;102477.84;;;10.67;100.00
29839;BME280;18669;53.356;-1.464;2023-02-04T06:07:07;102473.47;;;10.68;100.00
29839;BME280;18669;53.356;-1.464;2023-02-04T06:09:33;102480.50;;;10.67;100.00
29839;BME280;18669;53.356;-1.464;2023-02-04T06:11:59;102473.44;;;10.63;100.00
29839;BME280;18669;53.356;-1.464;2023-02-04T06:14:25;102482.38;;;10.84;100.00
29839;BME280;18669;53.356;-1.464;2023-02-04T06:16:51;102480.50;;;10.67;100.00
29839;BME280;18669;53.356;-1.464;2023-02-04T06:19:17;102482.25;;;10.68;100.00
29839;BME280;18669;53.356;-1.464;2023-02-04T06:21:43;102482.38;;;10.87;100.00
29839;BME280;18669;53.356;-1.464;2023-02-04T06:24:09;102477.00;;;10.68;100.00
29839;BME280;18669;53.356;-1.464;2023-02-04T06:26:35;102482.41;;;10.85;100.00
29839;BME280;18669;53.356;-1.464;2023-02-04T06:29:01;102487.50;;;10.70;100.00
29839;BME280;18669;53.356;-1.464;2023-02-04T06:31:26;102484.13;;;10.83;100.00
29839;BME280;18669;53.356;-1.464;2023-02-04T06:33:52;102492.75;;;10.65;100.00
29839;BME280;18669;53.356;-1.464;2023-02-04T06:36:18;102492.00;;;10.82;100.00
29839;BME280;18669;53.356;-1.464;2023-02-04T06:38:44;102497.13;;;10.65;100.00
29839;BME280;18669;53.356;-1.464;2023-02-04T06:41:10;102495.34;;;10.64;100.00
29839;BME280;18669;53.356;-1.464;2023-02-04T06:43:36;102497.97;;;10.64;100.00
29839;BME280;18669;53.356;-1.464;2023-02-04T06:46:02;102499.03;;;10.81;100.00
29839;BME280;18669;53.356;-1.464;2023-02-04T06:48:28;102496.22;;;10.61;100.00
29839;BME280;18669;53.356;-1.464;2023-02-04T06:50:54;102493.56;;;10.56;100.00
29839;BME280;18669;53.356;-1.464;2023-02-04T06:53:19;102505.84;;;10.59;100.00
29839;BME280;18669;53.356;-1.464;2023-02-04T06:55:45;102500.44;;;10.47;100.00
29839;BME280;18669;53.356;-1.464;2023-02-04T06:58:12;102499.59;;;10.48;100.00
29839;BME280;18669;53.356;-1.464;2023-02-04T07:00:38;102502.19;;;10.44;100.00
29839;BME280;18669;53.356;-1.464;2023-02-04T07:03:04;102502.25;;;10.49;100.00
29839;BME280;18669;53.356;-1.464;2023-02-04T07:05:32;102498.69;;;10.44;100.00
29839;BME280;18669;53.356;-1.464;2023-02-04T07:07:58;102504.81;;;10.44;100.00
29839;BME280;18669;53.356;-1.464;2023-02-04T07:10:24;102503.91;;;10.39;100.00
29839;BME280;18669;53.356;-1.464;2023-02-04T07:12:50;102506.66;;;10.52;100.00
29839;BME280;18669;53.356;-1.464;2023-02-04T07:15:16;102510.06;;;10.41;100.00
29839;BME280;18669;53.356;-1.464;2023-02-04T07:17:42;102515.47;;;10.55;100.00
29839;BME280;18669;53.356;-1.464;2023-02-04T07:20:09;102507.44;;;10.41;100.00
29839;BME280;18669;53.356;-1.464;2023-02-04T07:22:35;102520.47;;;10.32;100.00
29839;BME280;18669;53.356;-1.464;2023-02-04T07:25:01;102520.47;;;10.34;100.00
29839;BME280;18669;53.356;-1.464;2023-02-04T07:27:27;102521.31;;;10.31;100.00
29839;BME280;18669;53.356;-1.464;2023-02-04T07:29:53;102516.28;;;10.48;100.00
29839;BME280;18669;53.356;-1.464;2023-02-04T07:32:19;102523.97;;;10.33;100.00
29839;BME280;18669;53.356;-1.464;2023-02-04T07:34:45;102527.50;;;10.33;100.00
29839;BME280;18669;53.356;-1.464;2023-02-04T07:37:10;102522.44;;;10.50;100.00
29839;BME280;18669;53.356;-1.464;2023-02-04T07:39:36;102527.53;;;10.36;100.00
29839;BME280;18669;53.356;-1.464;2023-02-04T07:42:02;102520.50;;;10.37;100.00
29839;BME280;18669;53.356;-1.464;2023-02-04T07:44:28;102528.44;;;10.38;100.00
29839;BME280;18669;53.356;-1.464;2023-02-04T07:46:54;102523.13;;;10.35;100.00
29839;BME280;18669;53.356;-1.464;2023-02-04T07:49:21;102527.50;;;10.35;100.00
29839;BME280;18669;53.356;-1.464;2023-02-04T07:51:47;102533.63;;;10.32;100.00
29839;BME280;18669;53.356;-1.464;2023-02-04T07:54:13;102537.97;;;10.30;100.00
29839;BME280;18669;53.356;-1.464;2023-02-04T07:56:39;102536.22;;;10.30;100.00
29839;BME280;18669;53.356;-1.464;2023-02-04T07:59:05;102534.63;;;10.43;100.00
29839;BME280;18669;53.356;-1.464;2023-02-04T08:01:31;102543.25;;;10.32;100.00
29839;BME280;18669;53.356;-1.464;2023-02-04T08:03:57;102544.06;;;10.27;100.00
29839;BME280;18669;53.356;-1.464;2023-02-04T08:06:23;102547.56;;;10.25;100.00
29839;BME280;18669;53.356;-1.464;2023-02-04T08:08:49;102552.81;;;10.26;100.00
29839;BME280;18669;53.356;-1.464;2023-02-04T08:11:15;102546.66;;;10.24;100.00
29839;BME280;18669;53.356;-1.464;2023-02-04T08:13:43;102551.28;;;10.39;100.00
29839;BME280;18669;53.356;-1.464;2023-02-04T08:16:12;102554.66;;;10.34;100.00
29839;BME280;18669;53.356;-1.464;2023-02-04T08:18:38;102547.63;;;10.33;100.00
29839;BME280;18669;53.356;-1.464;2023-02-04T08:21:04;102545.00;;;10.31;100.00
29839;BME280;18669;53.356;-1.464;2023-02-04T08:23:31;102557.28;;;10.32;100.00
29839;BME280;18669;53.356;-1.464;2023-02-04T08:25:58;102553.69;;;10.25;100.00
29839;BME280;18669;53.356;-1.464;2023-02-04T08:28:24;102557.25;;;10.29;100.00
29839;BME280;18669;53.356;-1.464;2023-02-04T08:30:50;102564.28;;;10.32;100.00
29839;BME280;18669;53.356;-1.464;2023-02-04T08:33:16;102562.59;;;10.35;100.00
29839;BME280;18669;53.356;-1.464;2023-02-04T08:35:42;102573.22;;;10.43;100.00
29839;BME280;18669;53.356;-1.464;2023-02-04T08:38:08;102569.50;;;10.27;100.00
29839;BME280;18669;53.356;-1.464;2023-02-04T08:40:34;102577.47;;;10.33;100.00
29839;BME280;18669;53.356;-1.464;2023-02-04T08:43:00;102579.13;;;10.25;100.00
29839;BME280;18669;53.356;-1.464;2023-02-04T08:45:26;102569.63;;;10.36;100.00
29839;BME280;18669;53.356;-1.464;2023-02-04T08:47:52;102571.28;;;10.28;100.00
29839;BME280;18669;53.356;-1.464;2023-02-04T08:50:18;102572.22;;;10.35;100.00
29839;BME280;18669;53.356;-1.464;2023-02-04T08:52:44;102561.81;;;10.39;100.00
29839;BME280;18669;53.356;-1.464;2023-02-04T08:55:10;102567.06;;;10.42;100.00
29839;BME280;18669;53.356;-1.464;2023-02-04T08:57:35;102557.44;;;10.41;100.00
29839;BME280;18669;53.356;-1.464;2023-02-04T09:00:02;102568.16;;;10.62;100.00
29839;BME280;18669;53.356;-1.464;2023-02-04T09:02:28;102564.59;;;10.55;100.00
29839;BME280;18669;53.356;-1.464;2023-02-04T09:04:54;102563.78;;;10.62;100.00
29839;BME280;18669;53.356;-1.464;2023-02-04T09:07:20;102559.38;;;10.63;100.00
29839;BME280;18669;53.356;-1.464;2023-02-04T09:09:47;102561.13;;;10.57;100.00
29839;BME280;18669;53.356;-1.464;2023-02-04T09:12:13;102569.13;;;10.68;100.00
29839;BME280;18669;53.356;-1.464;2023-02-04T09:14:39;102556.78;;;10.66;100.00
29839;BME280;18669;53.356;-1.464;2023-02-04T09:17:04;102553.41;;;10.74;100.00
29839;BME280;18669;53.356;-1.464;2023-02-04T09:19:32;102556.81;;;10.69;100.00
29839;BME280;18669;53.356;-1.464;2023-02-04T09:21:57;102547.28;;;10.82;100.00
29839;BME280;18669;53.356;-1.464;2023-02-04T09:24:23;102554.16;;;10.64;100.00
29839;BME280;18669;53.356;-1.464;2023-02-04T09:26:49;102560.28;;;10.65;100.00
29839;BME280;18669;53.356;-1.464;2023-02-04T09:29:17;102564.75;;;10.70;100.00
29839;BME280;18669;53.356;-1.464;2023-02-04T09:31:43;102556.78;;;10.66;100.00
29839;BME280;18669;53.356;-1.464;2023-02-04T09:34:09;102556.91;;;10.75;100.00
29839;BME280;18669;53.356;-1.464;2023-02-04T09:36:35;102564.75;;;10.70;100.00
29839;BME280;18669;53.356;-1.464;2023-02-04T09:39:04;102566.53;;;10.71;100.00
29839;BME280;18669;53.356;-1.464;2023-02-04T09:41:32;102568.25;;;10.69;100.00
29839;BME280;18669;53.356;-1.464;2023-02-04T09:43:59;102569.09;;;10.65;100.00
29839;BME280;18669;53.356;-1.464;2023-02-04T09:46:26;102577.88;;;10.67;100.00
29839;BME280;18669;53.356;-1.464;2023-02-04T09:48:57;102580.53;;;10.69;100.00
29839;BME280;18669;53.356;-1.464;2023-02-04T09:51:26;102586.66;;;10.68;100.00
29839;BME280;18669;53.356;-1.464;2023-02-04T09:54:03;102589.31;;;10.71;100.00
29839;BME280;18669;53.356;-1.464;2023-02-04T09:56:30;102597.19;;;10.68;100.00
29839;BME280;18669;53.356;-1.464;2023-02-04T09:58:56;102596.28;;;10.66;100.00
29839;BME280;18669;53.356;-1.464;2023-02-04T10:01:22;102591.94;;;10.69;100.00
29839;BME280;18669;53.356;-1.464;2023-02-04T10:03:48;102593.72;;;10.70;100.00
29839;BME280;18669;53.356;-1.464;2023-02-04T10:06:18;102600.84;;;10.84;100.00
29839;BME280;18669;53.356;-1.464;2023-02-04T10:08:46;102606.09;;;10.81;100.00
29839;BME280;18669;53.356;-1.464;2023-02-04T10:11:14;102599.13;;;10.84;100.00
29839;BME280;18669;53.356;-1.464;2023-02-04T10:13:44;102594.78;;;10.89;100.00
29839;BME280;18669;53.356;-1.464;2023-02-04T10:16:19;102601.81;;;10.91;100.00
29839;BME280;18669;53.356;-1.464;2023-02-04T10:18:46;102594.81;;;10.96;100.00
29839;BME280;18669;53.356;-1.464;2023-02-04T10:21:18;102592.34;;;11.10;100.00
29839;BME280;18669;53.356;-1.464;2023-02-04T10:23:47;102594.97;;;11.13;100.00
29839;BME280;18669;53.356;-1.464;2023-02-04T10:26:15;102594.03;;;11.06;100.00
29839;BME280;18669;53.356;-1.464;2023-02-04T10:28:42;102599.31;;;11.04;100.00
29839;BME280;18669;53.356;-1.464;2023-02-04T10:34:31;102603.00;;;11.24;100.00
29839;BME280;18669;53.356;-1.464;2023-02-04T10:36:57;102606.41;;;11.13;100.00
29839;BME280;18669;53.356;-1.464;2023-02-04T10:41:52;102604.78;;;11.31;100.00
29839;BME280;18669;53.356;-1.464;2023-02-04T10:44:30;102608.25;;;11.25;100.00
29839;BME280;18669;53.356;-1.464;2023-02-04T10:47:03;102615.34;;;11.32;100.00
29839;BME280;18669;53.356;-1.464;2023-02-04T10:49:29;102621.41;;;11.21;100.00
29839;BME280;18669;53.356;-1.464;2023-02-04T10:51:59;102616.19;;;11.27;100.00
29839;BME280;18669;53.356;-1.464;2023-02-04T10:54:28;102610.06;;;11.29;97.69
29839;BME280;18669;53.356;-1.464;2023-02-04T10:57:03;102626.66;;;11.19;96.91
29839;BME280;18669;53.356;-1.464;2023-02-04T10:59:32;102617.00;;;11.21;99.55
29839;BME280;18669;53.356;-1.464;2023-02-04T11:02:00;102615.31;;;11.25;97.14
29839;BME280;18669;53.356;-1.464;2023-02-04T11:04:27;102613.47;;;11.17;95.87
29839;BME280;18669;53.356;-1.464;2023-02-04T11:06:53;102621.53;;;11.39;95.38
29839;BME280;18669;53.356;-1.464;2023-02-04T11:09:20;102619.66;;;11.24;96.50
29839;BME280;18669;53.356;-1.464;2023-02-04T11:11:48;102610.13;;;11.36;98.94
29839;BME280;18669;53.356;-1.464;2023-02-04T11:14:28;102614.56;;;11.43;95.55
29839;BME280;18669;53.356;-1.464;2023-02-04T11:16:56;102604.75;;;11.26;95.20
29839;BME280;18669;53.356;-1.464;2023-02-04T11:19:36;102610.94;;;11.31;95.85
29839;BME280;18669;53.356;-1.464;2023-02-04T11:22:52;102610.13;;;11.40;98.62
29839;BME280;18669;53.356;-1.464;2023-02-04T11:24:54;102608.44;;;11.44;98.52
29839;BME280;18669;53.356;-1.464;2023-02-04T11:27:38;102612.00;;;11.54;96.74
29839;BME280;18669;53.356;-1.464;2023-02-04T11:30:20;102609.38;;;11.54;99.15
29839;BME280;18669;53.356;-1.464;2023-02-04T11:32:59;102604.03;;;11.44;98.25
29839;BME280;18669;53.356;-1.464;2023-02-04T11:35:27;102604.91;;;11.42;100.00
29839;BME280;18669;53.356;-1.464;2023-02-04T11:37:54;102608.41;;;11.45;100.00
29839;BME280;18669;53.356;-1.464;2023-02-04T11:40:34;102619.88;;;11.47;99.80
29839;BME280;18669;53.356;-1.464;2023-02-04T11:43:12;102624.22;;;11.42;100.00
29839;BME280;18669;53.356;-1.464;2023-02-04T11:45:40;102614.56;;;11.44;100.00
29839;BME280;18669;53.356;-1.464;2023-02-04T11:48:18;102613.75;;;11.52;100.00
29839;BME280;18669;53.356;-1.464;2023-02-04T11:51:15;102606.78;;;11.61;99.62
29839;BME280;18669;53.356;-1.464;2023-02-04T11:53:41;102601.41;;;11.47;97.53
29839;BME280;18669;53.356;-1.464;2023-02-04T11:56:18;102593.56;;;11.54;96.72
29839;BME280;18669;53.356;-1.464;2023-02-04T11:58:45;102584.63;;;11.36;94.31
29839;BME280;18669;53.356;-1.464;2023-02-04T12:01:28;102596.13;;;11.47;95.06
29839;BME280;18669;53.356;-1.464;2023-02-04T12:03:57;102588.22;;;11.49;96.00
29839;BME280;18669;53.356;-1.464;2023-02-04T12:06:26;102598.81;;;11.51;95.06
29839;BME280;18669;53.356;-1.464;2023-02-04T12:09:24;102600.56;;;11.53;94.25
29839;BME280;18669;53.356;-1.464;2023-02-04T12:11:56;102599.63;;;11.43;97.15
29839;BME280;18669;53.356;-1.464;2023-02-04T12:14:34;102600.47;;;11.39;96.28
29839;BME280;18669;53.356;-1.464;2023-02-04T12:17:16;102599.56;;;11.36;94.14
29839;BME280;18669;53.356;-1.464;2023-02-04T12:19:42;102591.47;;;11.11;96.07
29839;BME280;18669;53.356;-1.464;2023-02-04T12:22:08;102604.69;;;11.20;98.13
29839;BME280;18669;53.356;-1.464;2023-02-04T12:24:34;102606.66;;;11.43;100.00
29839;BME280;18669;53.356;-1.464;2023-02-04T12:27:00;102610.88;;;11.21;100.00
29839;BME280;18669;53.356;-1.464;2023-02-04T12:29:26;102604.66;;;11.17;100.00
29839;BME280;18669;53.356;-1.464;2023-02-04T12:31:52;102602.75;;;10.99;100.00
29839;BME280;18669;53.356;-1.464;2023-02-04T12:34:18;102602.88;;;11.11;100.00
29839;BME280;18669;53.356;-1.464;2023-02-04T12:36:44;102598.31;;;10.93;100.00
29839;BME280;18669;53.356;-1.464;2023-02-04T12:39:10;102596.63;;;10.98;100.00